Time;durP1;ratioP1;P1;durP2;ratioP2;P2;SDS_P1;SDS_P2;PMS_P1;PMS_P2;Temp;Humidity;BMP_temperature;BMP_pressure;BME280_temperature;BME280_humidity;BME280_pressure;Samples;Min_cycle;Max_cycle;Signal;HPM_P1;HPM_P2
2022/02/25 00:00:43;;;;;;;14.02;5.82;;;;;;;10.24;43.72;99343.88;5069654;28;20051;-73
2022/02/25 00:03:13;;;;;;;12.15;5.32;;;;;;;10.24;43.54;99342.06;5066785;28;20052;-71
2022/02/25 00:05:40;;;;;;;10.25;5.45;;;;;;;10.25;43.68;99337.66;5070180;28;20075;-71
2022/02/25 00:08:07;;;;;;;10.52;5.45;;;;;;;10.26;43.70;99347.22;5070431;28;20450;-73
2022/02/25 00:10:34;;;;;;;7.78;4.72;;;;;;;10.25;43.65;99335.00;5070313;28;20046;-72
2022/02/25 00:13:01;;;;;;;9.15;4.95;;;;;;;10.22;43.75;99338.72;5071733;28;20051;-73
2022/02/25 00:15:28;;;;;;;11.95;6.30;;;;;;;10.20;43.68;99343.31;5069643;28;20041;-72
2022/02/25 00:17:56;;;;;;;12.32;5.43;;;;;;;10.24;43.82;99342.06;5070945;28;20119;-73
2022/02/25 00:20:23;;;;;;;8.45;4.55;;;;;;;10.24;43.83;99341.25;5071552;28;20044;-74
2022/02/25 00:22:50;;;;;;;8.90;6.43;;;;;;;10.25;43.63;99345.56;5070421;28;20044;-71
2022/02/25 00:25:17;;;;;;;8.70;5.70;;;;;;;10.26;43.52;99341.94;5071781;28;20044;-73
2022/02/25 00:27:45;;;;;;;10.43;5.50;;;;;;;10.25;43.69;99340.28;5074516;28;20046;-77
2022/02/25 00:30:15;;;;;;;8.73;4.65;;;;;;;10.24;43.56;99328.88;5076253;28;20040;-75
2022/02/25 00:32:42;;;;;;;12.80;4.50;;;;;;;10.26;43.70;99331.38;5077341;28;20082;-73
2022/02/25 00:35:13;;;;;;;8.35;4.70;;;;;;;10.25;43.70;99327.94;5075938;28;20131;-78
2022/02/25 00:37:40;;;;;;;12.02;4.35;;;;;;;10.26;43.68;99324.34;5075379;28;20084;-75
2022/02/25 00:40:09;;;;;;;9.82;5.72;;;;;;;10.26;43.84;99326.13;5074848;28;20055;-75
2022/02/25 00:42:36;;;;;;;6.55;4.35;;;;;;;10.27;43.68;99319.88;5074653;28;20057;-73
2022/02/25 00:45:03;;;;;;;10.95;5.03;;;;;;;10.28;43.98;99313.63;5076495;28;20044;-73
2022/02/25 00:47:30;;;;;;;6.82;4.05;;;;;;;10.31;43.68;99323.94;5075412;28;20052;-72
2022/02/25 00:49:58;;;;;;;12.45;5.22;;;;;;;10.33;43.54;99316.72;5076148;28;20051;-74
2022/02/25 00:52:26;;;;;;;10.70;5.15;;;;;;;10.33;43.78;99311.44;5074186;28;20129;-73
2022/02/25 00:54:53;;;;;;;7.75;4.45;;;;;;;10.35;43.76;99316.59;5076125;28;20032;-72
2022/02/25 00:57:20;;;;;;;7.97;3.90;;;;;;;10.37;43.77;99314.66;5070598;28;20056;-74
2022/02/25 00:59:48;;;;;;;8.57;4.35;;;;;;;10.36;43.50;99313.00;5073522;28;20044;-72
2022/02/25 01:02:15;;;;;;;9.38;5.15;;;;;;;10.36;43.62;99323.56;5075486;28;20079;-73
2022/02/25 01:04:41;;;;;;;10.63;4.55;;;;;;;10.33;43.67;99309.66;5075828;28;20393;-71
2022/02/25 01:07:08;;;;;;;9.48;5.75;;;;;;;10.35;43.74;99325.34;5074397;28;20678;-72
2022/02/25 01:09:37;;;;;;;6.28;4.20;;;;;;;10.34;43.65;99310.50;5074891;28;20040;-72
2022/02/25 01:12:06;;;;;;;9.85;5.03;;;;;;;10.33;43.67;99308.81;5075269;28;20050;-73
2022/02/25 01:14:33;;;;;;;10.30;5.43;;;;;;;10.32;43.69;99302.69;5076698;28;20044;-73
2022/02/25 01:17:00;;;;;;;14.40;4.80;;;;;;;10.30;43.72;99303.78;5085896;28;20582;-72
2022/02/25 01:19:27;;;;;;;7.15;3.50;;;;;;;10.29;43.75;99307.38;5085191;28;20070;-73
2022/02/25 01:21:54;;;;;;;10.55;5.38;;;;;;;10.26;43.78;99303.22;5085364;28;20044;-72
2022/02/25 01:24:21;;;;;;;8.70;5.43;;;;;;;10.23;43.83;99303.47;5085727;28;20051;-72
2022/02/25 01:26:50;;;;;;;10.88;5.47;;;;;;;10.21;43.88;99289.59;5084984;28;20048;-72
2022/02/25 01:29:17;;;;;;;10.48;4.32;;;;;;;10.18;43.99;99294.28;5084284;28;20084;-72
2022/02/25 01:31:45;;;;;;;7.05;3.72;;;;;;;10.13;44.01;99276.19;5085141;28;20055;-71
2022/02/25 01:34:12;;;;;;;6.40;3.25;;;;;;;10.14;43.76;99277.88;5085142;28;20587;-71
2022/02/25 01:36:39;;;;;;;9.38;5.25;;;;;;;10.08;44.03;99286.31;5085565;28;20070;-71
2022/02/25 01:39:06;;;;;;;8.63;4.78;;;;;;;10.05;43.95;99279.50;5084544;28;20146;-71
2022/02/25 01:41:34;;;;;;;10.45;4.88;;;;;;;10.03;44.06;99278.81;5085372;28;20052;-71
2022/02/25 01:44:16;;;;;;;10.30;4.65;;;;;;;10.03;44.16;99281.44;5090797;28;20050;-71
2022/02/25 01:46:47;;;;;;;9.10;4.38;;;;;;;10.00;44.26;99279.06;5085804;28;20050;-73
2022/02/25 01:49:14;;;;;;;9.30;3.90;;;;;;;9.95;44.15;99270.69;5085554;28;20685;-73
2022/02/25 01:51:42;;;;;;;8.60;4.70;;;;;;;9.92;44.24;99271.81;5085864;28;20055;-74
2022/02/25 01:54:09;;;;;;;8.68;4.50;;;;;;;9.88;44.53;99272.19;5086220;28;20116;-75
2022/02/25 01:56:38;;;;;;;7.63;3.58;;;;;;;9.85;44.41;99272.44;5085918;28;20127;-72
2022/02/25 01:59:06;;;;;;;6.93;3.67;;;;;;;9.79;44.57;99268.53;5084219;28;20074;-74
2022/02/25 02:01:37;;;;;;;9.45;3.92;;;;;;;9.75;44.41;99273.22;5085220;28;20063;-72
2022/02/25 02:04:05;;;;;;;9.43;4.90;;;;;;;9.71;44.83;99278.91;5085235;28;20040;-72
2022/02/25 02:06:32;;;;;;;7.35;4.07;;;;;;;9.67;44.54;99274.84;5085720;28;20048;-74
2022/02/25 02:08:59;;;;;;;9.00;4.35;;;;;;;9.64;44.93;99283.84;5086170;28;20060;-72
2022/02/25 02:11:32;;;;;;;6.93;4.43;;;;;;;9.60;44.89;99278.97;5086606;28;20117;-72
2022/02/25 02:14:01;;;;;;;7.70;3.78;;;;;;;9.56;45.04;99278.38;5085633;28;20071;-73
2022/02/25 02:16:28;;;;;;;7.15;3.67;;;;;;;9.54;45.10;99280.31;5085016;28;20058;-69
2022/02/25 02:18:57;;;;;;;10.13;4.45;;;;;;;9.51;45.20;99281.41;5084964;28;20058;-70
2022/02/25 02:21:26;;;;;;;9.35;4.32;;;;;;;9.51;45.14;99284.06;5085676;28;20076;-74
2022/02/25 02:23:56;;;;;;;8.88;4.53;;;;;;;9.48;45.14;99283.47;5086420;28;20087;-75
2022/02/25 02:26:23;;;;;;;7.07;3.92;;;;;;;9.46;45.23;99275.69;5085080;28;20070;-73
2022/02/25 02:28:50;;;;;;;8.00;4.32;;;;;;;9.44;45.29;99277.63;5083656;28;20044;-75
2022/02/25 02:31:18;;;;;;;8.85;5.07;;;;;;;9.41;45.47;99282.31;5085235;28;20048;-73
2022/02/25 02:33:46;;;;;;;12.85;4.88;;;;;;;9.40;45.39;99280.63;5085225;28;20147;-74
2022/02/25 02:36:13;;;;;;;13.18;4.85;;;;;;;9.37;45.38;99285.19;5085621;28;20040;-72
2022/02/25 02:38:40;;;;;;;13.43;4.43;;;;;;;9.36;45.37;99283.53;5084884;28;20047;-71
2022/02/25 02:41:09;;;;;;;8.40;3.80;;;;;;;9.33;45.45;99278.50;5085119;28;20044;-74
2022/02/25 02:43:37;;;;;;;6.82;4.05;;;;;;;9.33;45.59;99277.69;5085291;28;20044;-72
2022/02/25 02:46:05;;;;;;;9.77;4.20;;;;;;;9.35;45.63;99284.50;5084670;28;20135;-73
2022/02/25 02:48:32;;;;;;;9.38;3.97;;;;;;;9.45;45.32;99287.19;5084673;28;20044;-72
2022/02/25 02:50:59;;;;;;;6.72;3.58;;;;;;;9.52;45.28;99285.72;5085524;28;20052;-70
2022/02/25 02:53:26;;;;;;;8.38;4.25;;;;;;;9.56;45.10;99289.78;5085949;28;20113;-73
2022/02/25 02:55:53;;;;;;;9.40;4.53;;;;;;;9.65;44.88;99297.88;5085579;28;20107;-72
2022/02/25 02:58:22;;;;;;;8.75;4.25;;;;;;;9.71;45.02;99303.47;5082976;28;20048;-71
2022/02/25 03:00:51;;;;;;;7.20;4.45;;;;;;;9.76;44.89;99306.56;5085196;28;20415;-74
2022/02/25 03:03:18;;;;;;;7.63;4.22;;;;;;;9.79;44.90;99315.19;5085494;28;20040;-72
2022/02/25 03:05:46;;;;;;;9.57;4.20;;;;;;;9.81;44.72;99323.78;5086075;28;20200;-74
2022/02/25 03:08:14;;;;;;;8.02;4.15;;;;;;;9.86;44.86;99324.25;5085827;28;20044;-73
2022/02/25 03:10:42;;;;;;;9.15;4.07;;;;;;;9.89;44.70;99331.91;5085193;28;20052;-73
2022/02/25 03:13:09;;;;;;;8.73;4.47;;;;;;;9.88;44.77;99322.31;5084626;28;20092;-73
2022/02/25 03:15:37;;;;;;;7.53;4.20;;;;;;;9.91;44.80;99309.69;5085370;28;20047;-72
2022/02/25 03:18:06;;;;;;;8.90;3.90;;;;;;;9.93;44.85;99323.59;5084299;28;20559;-72
2022/02/25 03:20:33;;;;;;;8.93;3.78;;;;;;;9.94;44.84;99327.06;5084280;28;20048;-72
2022/02/25 03:23:01;;;;;;;8.15;4.78;;;;;;;9.95;44.77;99328.72;5084919;28;20480;-72
2022/02/25 03:25:29;;;;;;;8.75;4.15;;;;;;;9.93;44.93;99318.31;5084258;28;20046;-72
2022/02/25 03:27:57;;;;;;;7.63;3.58;;;;;;;9.94;44.97;99313.88;5083014;28;20048;-72
2022/02/25 03:30:24;;;;;;;9.18;4.18;;;;;;;9.93;45.18;99317.47;5084499;28;20530;-72
2022/02/25 03:32:52;;;;;;;10.85;4.80;;;;;;;9.95;45.18;99320.81;5083832;28;20063;-73
2022/02/25 03:35:20;;;;;;;7.82;4.47;;;;;;;9.97;45.30;99329.44;5084149;28;20071;-72
2022/02/25 03:37:48;;;;;;;10.15;4.88;;;;;;;10.02;45.17;99329.06;5085188;28;20051;-73
2022/02/25 03:40:15;;;;;;;9.30;4.55;;;;;;;10.08;45.23;99325.88;5084695;28;20050;-72
2022/02/25 03:42:43;;;;;;;12.25;4.25;;;;;;;10.10;45.26;99337.13;5084144;28;20490;-71
2022/02/25 03:45:11;;;;;;;7.85;4.18;;;;;;;10.20;45.15;99338.03;5084160;28;20066;-75
2022/02/25 03:47:38;;;;;;;6.55;4.28;;;;;;;10.26;45.15;99349.88;5083784;28;20489;-72
2022/02/25 03:50:08;;;;;;;6.30;3.30;;;;;;;10.31;45.13;99347.69;5084271;28;20098;-74
2022/02/25 03:52:35;;;;;;;8.45;4.32;;;;;;;10.39;44.89;99354.94;5083519;28;20502;-72
2022/02/25 03:55:02;;;;;;;5.10;3.45;;;;;;;10.47;44.89;99361.25;5084960;28;20123;-77
2022/02/25 03:57:29;;;;;;;9.15;3.75;;;;;;;10.52;44.73;99356.41;5083723;28;20046;-71
2022/02/25 03:59:56;;;;;;;6.72;4.55;;;;;;;10.58;44.66;99338.38;5083838;28;20127;-70
2022/02/25 04:02:23;;;;;;;8.07;3.10;;;;;;;10.59;44.77;99354.09;5083791;28;20114;-72
2022/02/25 04:04:50;;;;;;;6.07;3.75;;;;;;;10.52;44.88;99359.06;5084656;28;20128;-72
2022/02/25 04:07:18;;;;;;;9.52;3.45;;;;;;;10.57;44.86;99363.09;5083659;28;20035;-71
2022/02/25 04:09:45;;;;;;;7.50;3.20;;;;;;;10.63;44.76;99379.25;5083543;28;20050;-70
2022/02/25 04:12:12;;;;;;;8.35;3.95;;;;;;;10.70;44.75;99382.19;5072161;28;20048;-70
2022/02/25 04:14:42;;;;;;;8.27;3.15;;;;;;;10.73;44.64;99376.63;5063235;28;20076;-71
2022/02/25 04:17:10;;;;;;;14.35;5.20;;;;;;;10.66;44.93;99381.63;5063111;28;20135;-72
2022/02/25 04:19:37;;;;;;;6.97;3.53;;;;;;;10.61;44.97;99385.63;5063516;28;20048;-73
2022/02/25 04:22:05;;;;;;;4.00;2.53;;;;;;;10.60;45.00;99394.53;5064203;28;20151;-76
2022/02/25 04:24:33;;;;;;;6.22;3.47;;;;;;;10.47;45.39;99390.28;5065206;28;20128;-76
2022/02/25 04:27:00;;;;;;;5.65;3.17;;;;;;;10.38;46.02;99409.56;5063464;28;20049;-73
2022/02/25 04:29:27;;;;;;;5.95;2.92;;;;;;;10.20;46.40;99413.72;5061713;28;20044;-72
2022/02/25 04:31:54;;;;;;;4.45;1.65;;;;;;;10.04;46.85;99440.56;5064233;28;20082;-73
2022/02/25 04:34:21;;;;;;;4.45;1.52;;;;;;;9.84;46.41;99452.78;5064471;28;20507;-73
2022/02/25 04:36:49;;;;;;;1.65;1.13;;;;;;;9.73;46.83;99449.19;5063757;28;20045;-73
2022/02/25 04:39:16;;;;;;;2.13;1.17;;;;;;;9.52;47.42;99437.78;5064378;28;20053;-74
2022/02/25 04:41:44;;;;;;;4.45;1.33;;;;;;;9.31;47.59;99479.84;5062704;28;20041;-73
2022/02/25 04:44:11;;;;;;;2.28;1.38;;;;;;;9.25;47.27;99486.47;5062289;28;20056;-75
2022/02/25 04:46:40;;;;;;;2.75;0.75;;;;;;;9.14;47.13;99489.13;5064146;28;20604;-73
2022/02/25 04:49:07;;;;;;;3.75;2.10;;;;;;;9.02;47.50;99484.81;5063682;28;20072;-77
2022/02/25 04:51:34;;;;;;;5.00;3.05;;;;;;;8.88;48.13;99486.72;5063399;28;20103;-76
2022/02/25 04:54:01;;;;;;;3.47;2.22;;;;;;;8.83;48.35;99507.31;5065320;28;20552;-73
2022/02/25 04:56:28;;;;;;;3.22;2.05;;;;;;;8.47;49.46;99503.06;5063243;28;20052;-74
2022/02/25 04:58:57;;;;;;;6.10;3.38;;;;;;;8.38;49.84;99512.47;5062425;28;20047;-71
2022/02/25 05:01:24;;;;;;;9.55;5.22;;;;;;;8.27;50.57;99526.41;5064187;28;20195;-73
2022/02/25 05:03:52;;;;;;;3.42;2.30;;;;;;;8.20;51.15;99549.72;5063804;28;20101;-74
2022/02/25 05:06:19;;;;;;;7.75;3.53;;;;;;;8.15;51.63;99546.56;5063645;28;20079;-76
2022/02/25 05:08:48;;;;;;;6.82;3.60;;;;;;;8.06;52.24;99563.03;5063899;28;20098;-75
2022/02/25 05:11:17;;;;;;;5.85;3.20;;;;;;;7.92;53.00;99568.44;5062949;28;20048;-76
2022/02/25 05:13:44;;;;;;;5.43;2.92;;;;;;;7.92;53.07;99582.44;5067096;28;20128;-76
2022/02/25 05:21:47;;;;;;;1.85;1.27;;;;;;;7.91;53.17;99587.81;5066943;28;20563;-79
2022/02/25 05:24:14;;;;;;;1.08;0.98;;;;;;;7.90;53.08;99599.28;5069679;28;20044;-77
2022/02/25 05:26:42;;;;;;;2.17;1.23;;;;;;;7.92;53.02;99594.75;5073977;28;20047;-78
2022/02/25 05:29:09;;;;;;;1.63;1.25;;;;;;;7.93;52.69;99604.34;5075860;28;20147;-76
2022/02/25 05:31:38;;;;;;;2.88;1.20;;;;;;;7.98;52.21;99615.38;5076577;28;20071;-74
2022/02/25 05:34:05;;;;;;;1.63;1.15;;;;;;;7.92;52.26;99615.78;5073115;28;20131;-75
2022/02/25 05:36:32;;;;;;;1.92;1.65;;;;;;;7.91;51.93;99614.13;5068060;28;20045;-77
2022/02/25 05:38:59;;;;;;;2.83;1.60;;;;;;;7.90;51.67;99622.94;5068693;28;20044;-75
2022/02/25 05:41:27;;;;;;;3.28;2.63;;;;;;;7.84;51.69;99622.44;5067449;28;20040;-76
2022/02/25 05:43:54;;;;;;;3.95;1.85;;;;;;;7.81;51.43;99624.44;5067652;28;20048;-77
2022/02/25 05:46:21;;;;;;;1.38;1.17;;;;;;;7.83;51.56;99638.31;5066985;28;20076;-74
2022/02/25 05:48:49;;;;;;;4.13;1.75;;;;;;;7.81;51.43;99643.69;5066870;28;20412;-76
2022/02/25 05:51:16;;;;;;;2.55;1.73;;;;;;;7.82;51.22;99642.75;5067006;28;20127;-77
2022/02/25 05:53:43;;;;;;;2.63;1.38;;;;;;;7.84;51.56;99653.97;5069728;28;20739;-74
2022/02/25 05:56:11;;;;;;;3.03;1.77;;;;;;;7.90;51.45;99657.13;5071096;28;20131;-77
2022/02/25 05:58:38;;;;;;;1.38;1.08;;;;;;;7.87;51.56;99659.97;5070782;28;20036;-77
2022/02/25 06:01:05;;;;;;;3.83;1.90;;;;;;;7.88;51.54;99666.91;5075780;28;20504;-77
2022/02/25 06:03:32;;;;;;;2.03;1.33;;;;;;;7.90;51.44;99670.28;5074710;28;20056;-75
2022/02/25 06:06:01;;;;;;;2.63;1.45;;;;;;;7.91;51.31;99677.22;5078441;28;20115;-75
2022/02/25 06:08:28;;;;;;;2.33;1.65;;;;;;;7.94;51.18;99684.88;5079417;28;20588;-77
2022/02/25 06:10:56;;;;;;;3.33;1.67;;;;;;;7.85;51.33;99689.84;5071325;28;20083;-78
2022/02/25 06:13:23;;;;;;;2.50;1.65;;;;;;;7.84;51.22;99703.09;5072274;28;20133;-76
2022/02/25 06:15:51;;;;;;;2.50;2.03;;;;;;;7.84;51.18;99692.59;5073214;28;20127;-75
2022/02/25 06:18:18;;;;;;;2.70;1.52;;;;;;;7.89;51.03;99694.91;5077976;28;20056;-78
2022/02/25 06:20:45;;;;;;;3.10;2.42;;;;;;;7.80;51.51;99699.84;5073526;28;20083;-74
2022/02/25 06:23:14;;;;;;;1.98;1.67;;;;;;;7.83;51.46;99712.78;5049014;28;20050;-73
2022/02/25 06:25:43;;;;;;;3.50;1.63;;;;;;;7.78;51.29;99720.16;5064755;28;20044;-76
2022/02/25 06:28:11;;;;;;;2.50;2.10;;;;;;;7.92;51.13;99720.97;5064647;28;20048;-75
2022/02/25 06:30:38;;;;;;;5.15;2.47;;;;;;;7.84;51.00;99726.75;5068036;28;20139;-80
2022/02/25 06:33:06;;;;;;;2.83;2.17;;;;;;;7.77;51.00;99722.88;5066030;28;20059;-75
2022/02/25 06:35:34;;;;;;;5.05;2.85;;;;;;;7.77;51.04;99734.22;5070203;28;20058;-79
2022/02/25 06:38:02;;;;;;;3.47;2.88;;;;;;;7.80;50.94;99743.72;5049288;28;20052;-78
2022/02/25 06:40:32;;;;;;;4.25;3.05;;;;;;;7.74;51.22;99742.34;5080552;28;20127;-77
2022/02/25 06:42:59;;;;;;;3.97;2.70;;;;;;;7.66;51.60;99752.53;5068746;28;20059;-76
2022/02/25 06:45:27;;;;;;;3.17;2.30;;;;;;;7.73;51.03;99753.78;5066831;28;20673;-78
2022/02/25 06:47:54;;;;;;;2.95;2.00;;;;;;;7.60;50.99;99756.44;5065477;28;20110;-74
2022/02/25 06:50:21;;;;;;;2.63;2.05;;;;;;;7.37;51.70;99775.53;5064527;28;20055;-77
2022/02/25 06:52:48;;;;;;;3.13;2.83;;;;;;;7.29;51.82;99783.91;5064635;28;20710;-79
2022/02/25 06:55:18;;;;;;;5.00;3.00;;;;;;;7.25;52.06;99785.06;5048004;28;20546;-78
2022/02/25 06:57:47;;;;;;;3.45;2.38;;;;;;;7.15;52.21;99794.47;5046793;28;20950;-76
2022/02/25 07:00:21;;;;;;;3.97;2.33;;;;;;;7.03;52.34;99801.38;5048107;28;20090;-78
2022/02/25 07:02:49;;;;;;;4.07;2.95;;;;;;;6.96;51.70;99800.94;5067986;28;20059;-77
2022/02/25 07:05:17;;;;;;;4.68;2.80;;;;;;;6.87;51.58;99809.41;5066124;28;20052;-77
2022/02/25 07:07:44;;;;;;;3.00;2.22;;;;;;;6.77;51.41;99816.19;5064791;28;20055;-76
2022/02/25 07:10:11;;;;;;;4.43;2.67;;;;;;;6.73;51.62;99823.41;5066010;28;20136;-76
2022/02/25 07:12:39;;;;;;;5.50;2.33;;;;;;;6.66;51.54;99836.09;5065471;28;20037;-78
2022/02/25 07:15:09;;;;;;;4.65;2.20;;;;;;;6.64;51.65;99845.81;5065323;28;20510;-79
2022/02/25 07:17:37;;;;;;;4.03;2.00;;;;;;;6.69;51.51;99862.13;5048955;28;20080;-79
2022/02/25 07:20:05;;;;;;;5.15;2.20;;;;;;;6.64;51.52;99858.94;5065750;28;20045;-78
2022/02/25 07:22:33;;;;;;;5.78;2.72;;;;;;;6.73;51.29;99872.44;5051917;28;20140;-79
2022/02/25 07:25:00;;;;;;;4.22;2.45;;;;;;;6.74;50.87;99868.88;5046944;28;20047;-72
2022/02/25 07:27:27;;;;;;;8.38;2.65;;;;;;;6.72;50.83;99871.59;5064123;28;20576;-76
2022/02/25 07:29:54;;;;;;;3.03;2.30;;;;;;;6.80;50.71;99877.19;5063509;28;20511;-77
2022/02/25 07:32:23;;;;;;;4.05;2.03;;;;;;;6.98;50.28;99876.97;5064720;28;20153;-77
2022/02/25 07:34:51;;;;;;;3.72;2.42;;;;;;;7.21;49.92;99883.41;5064818;28;20048;-76
2022/02/25 07:37:19;;;;;;;3.28;1.98;;;;;;;7.28;49.54;99879.44;5064762;28;20139;-76
2022/02/25 07:39:46;;;;;;;4.55;2.25;;;;;;;7.49;49.17;99892.97;5064692;28;20057;-78
2022/02/25 07:42:13;;;;;;;4.03;2.90;;;;;;;7.63;48.65;99892.91;5064789;28;20059;-78
2022/02/25 07:44:40;;;;;;;5.30;2.47;;;;;;;7.64;48.38;99902.47;5064129;28;20423;-75
2022/02/25 07:47:08;;;;;;;6.40;3.20;;;;;;;7.51;48.42;99905.97;5064169;28;20048;-77
2022/02/25 07:49:36;;;;;;;2.63;2.22;;;;;;;7.54;48.67;99913.66;5063607;28;20749;-78
2022/02/25 07:52:04;;;;;;;4.65;2.42;;;;;;;7.59;48.72;99924.72;5065547;28;20235;-78
2022/02/25 07:54:32;;;;;;;4.13;2.00;;;;;;;7.65;48.38;99919.06;5066313;28;20052;-76
2022/02/25 07:57:00;;;;;;;3.92;2.55;;;;;;;7.65;48.53;99929.56;5065694;28;20071;-75
2022/02/25 07:59:27;;;;;;;3.88;2.40;;;;;;;7.66;48.36;99929.47;5047115;28;20053;-77
2022/02/25 08:01:54;;;;;;;4.15;3.50;;;;;;;7.58;48.08;99930.91;5063309;28;20058;-75
2022/02/25 08:04:21;;;;;;;8.77;3.47;;;;;;;7.45;47.27;99929.13;5065233;28;20044;-78
2022/02/25 08:06:52;;;;;;;6.88;2.92;;;;;;;7.38;47.66;99927.81;5066274;28;20044;-78
2022/02/25 08:09:21;;;;;;;7.90;3.67;;;;;;;7.32;47.21;99949.22;5066645;28;20048;-76
2022/02/25 08:11:48;;;;;;;5.90;3.22;;;;;;;7.23;46.77;99928.78;5047112;28;20063;-74
2022/02/25 08:14:16;;;;;;;9.50;2.65;;;;;;;7.15;47.00;99944.19;5062833;28;21098;-74
2022/02/25 08:16:44;;;;;;;5.72;2.72;;;;;;;6.94;47.06;99926.22;5060823;28;20147;-72
2022/02/25 08:19:11;;;;;;;5.47;2.05;;;;;;;6.99;47.32;99958.28;5063581;28;20127;-74
2022/02/25 08:21:38;;;;;;;3.63;2.33;;;;;;;6.95;47.03;99940.19;5062643;28;20102;-75
2022/02/25 08:24:07;;;;;;;10.90;2.38;;;;;;;7.03;46.87;99948.44;5062259;28;20623;-78
2022/02/25 08:26:34;;;;;;;4.53;2.45;;;;;;;7.17;46.64;99948.41;5064206;28;20056;-75
2022/02/25 08:29:03;;;;;;;3.20;1.60;;;;;;;7.17;46.21;99939.69;5061917;28;20055;-75
2022/02/25 08:31:30;;;;;;;5.47;2.63;;;;;;;7.35;45.88;99933.25;5063850;28;20445;-71
2022/02/25 08:33:57;;;;;;;5.90;1.90;;;;;;;7.52;45.63;99960.25;5065735;28;20048;-77
2022/02/25 08:36:24;;;;;;;5.07;1.58;;;;;;;7.62;45.55;99970.06;5065269;28;20040;-77
2022/02/25 08:38:52;;;;;;;4.55;1.90;;;;;;;7.66;44.47;99968.06;5063248;28;20049;-77
2022/02/25 08:41:20;;;;;;;8.20;2.88;;;;;;;7.65;44.92;99974.25;5062962;28;20052;-76
2022/02/25 08:43:48;;;;;;;6.13;2.10;;;;;;;7.58;44.55;99980.84;5063704;28;20052;-76
2022/02/25 08:46:16;;;;;;;3.55;1.88;;;;;;;7.61;44.85;99972.78;5064751;28;20488;-75
2022/02/25 08:48:43;;;;;;;4.70;2.33;;;;;;;7.59;44.98;99964.16;5048531;28;20123;-76
2022/02/25 08:51:10;;;;;;;4.97;2.50;;;;;;;7.62;44.73;99977.09;5065775;28;20384;-75
2022/02/25 08:53:37;;;;;;;4.50;2.53;;;;;;;7.92;44.57;99983.91;5069335;28;20136;-78
2022/02/25 08:56:06;;;;;;;7.47;2.03;;;;;;;8.18;44.04;99982.22;5070711;28;20053;-76
2022/02/25 08:58:36;;;;;;;3.20;2.17;;;;;;;8.48;43.21;99984.59;5073945;28;20136;-75
2022/02/25 09:01:04;;;;;;;4.93;1.70;;;;;;;8.88;43.12;100005.53;5077337;28;20545;-77
2022/02/25 09:03:31;;;;;;;4.07;1.92;;;;;;;9.01;41.84;100000.25;5076945;28;20040;-78
2022/02/25 09:05:58;;;;;;;6.05;3.28;;;;;;;8.54;41.83;100002.59;5050044;28;20051;-78
2022/02/25 09:08:29;;;;;;;4.97;2.30;;;;;;;8.37;42.02;99987.94;5068157;28;20049;-77
2022/02/25 09:10:56;;;;;;;6.63;2.33;;;;;;;8.45;41.86;99999.75;5068187;28;20150;-75
2022/02/25 09:13:24;;;;;;;5.03;2.30;;;;;;;8.80;41.20;100000.81;5068702;28;20045;-76
2022/02/25 09:15:54;;;;;;;5.47;2.42;;;;;;;8.74;40.88;99997.75;5073389;28;20235;-77
2022/02/25 09:18:21;;;;;;;10.15;2.40;;;;;;;8.86;41.00;99996.91;5072127;28;20090;-76
2022/02/25 09:20:49;;;;;;;5.25;1.75;;;;;;;8.57;40.95;100012.94;5069069;28;20052;-74
2022/02/25 09:23:16;;;;;;;7.32;2.05;;;;;;;8.40;41.27;100010.56;5072198;28;20522;-74
2022/02/25 09:25:44;;;;;;;4.03;2.40;;;;;;;8.22;42.43;100023.97;5070269;28;20045;-75
2022/02/25 09:28:12;;;;;;;8.40;1.75;;;;;;;8.41;42.08;100031.50;5072680;28;20079;-79
2022/02/25 09:30:40;;;;;;;5.75;2.00;;;;;;;8.46;40.76;100041.75;5074098;28;20057;-78
2022/02/25 09:33:09;;;;;;;5.22;2.00;;;;;;;8.57;41.18;100028.72;5074180;28;20140;-76
2022/02/25 09:35:37;;;;;;;5.60;2.20;;;;;;;8.68;40.82;100042.91;5073461;28;20401;-82
2022/02/25 09:38:04;;;;;;;7.22;3.25;;;;;;;8.47;41.50;100038.19;5071610;28;20118;-78
2022/02/25 09:40:31;;;;;;;5.00;2.80;;;;;;;8.38;41.46;100049.28;5072354;28;20047;-77
2022/02/25 09:42:59;;;;;;;4.22;1.70;;;;;;;8.60;41.57;100046.91;5059702;28;20083;-76
2022/02/25 09:45:27;;;;;;;4.57;2.40;;;;;;;8.51;41.43;100051.97;5072507;28;20055;-78
2022/02/25 09:47:54;;;;;;;4.43;2.58;;;;;;;8.36;42.24;100053.81;5071338;28;20197;-75
2022/02/25 09:50:25;;;;;;;6.45;2.33;;;;;;;8.29;42.38;100056.00;5051883;28;20141;-75
2022/02/25 09:52:54;;;;;;;6.20;1.88;;;;;;;8.31;42.26;100048.00;5071616;28;20045;-75
2022/02/25 09:55:25;;;;;;;5.80;2.20;;;;;;;8.26;42.28;100058.81;5073568;28;20090;-75
2022/02/25 09:57:53;;;;;;;4.75;2.05;;;;;;;8.33;41.71;100054.84;5073008;28;20067;-78
2022/02/25 10:00:21;;;;;;;4.57;2.55;;;;;;;8.49;41.74;100070.50;5056993;28;20080;-78
2022/02/25 10:02:50;;;;;;;9.02;2.60;;;;;;;8.42;41.67;100061.31;5073520;28;20048;-75
2022/02/25 10:05:20;;;;;;;11.38;3.28;;;;;;;8.36;42.16;100075.69;5076768;28;20063;-78
2022/02/25 10:07:50;;;;;;;4.25;2.28;;;;;;;8.45;42.41;100082.19;5076349;28;20044;-77
2022/02/25 10:10:20;;;;;;;9.88;2.22;;;;;;;8.74;41.87;100088.13;5075768;28;20123;-79
2022/02/25 10:12:49;;;;;;;13.80;4.65;;;;;;;8.93;41.58;100082.47;5074730;28;20091;-78
2022/02/25 10:15:28;;;;;;;6.80;3.08;;;;;;;8.69;41.49;100081.47;5071658;28;20518;-77
2022/02/25 10:18:01;;;;;;;11.52;2.95;;;;;;;8.84;41.97;100085.72;5074769;28;20051;-78
2022/02/25 10:20:28;;;;;;;7.40;2.90;;;;;;;8.77;41.86;100087.09;5074962;28;20048;-80
2022/02/25 10:23:24;;;;;;;7.68;2.58;;;;;;;8.79;41.27;100093.09;5077419;28;20079;-78
2022/02/25 10:25:52;;;;;;;8.13;1.98;;;;;;;8.85;41.32;100102.34;5076608;28;20460;-78
2022/02/25 10:28:31;;;;;;;6.05;3.05;;;;;;;9.02;41.11;100095.94;5078849;28;20032;-78
2022/02/25 10:31:18;;;;;;;5.85;2.88;;;;;;;9.37;40.54;100075.88;5082331;28;20044;-76
2022/02/25 10:33:46;;;;;;;5.03;2.15;;;;;;;9.19;39.99;100082.44;5081736;28;20181;-79
2022/02/25 10:36:13;;;;;;;5.20;2.47;;;;;;;9.07;40.76;100080.66;5084823;28;20824;-78
2022/02/25 10:38:41;;;;;;;8.00;3.20;;;;;;;8.98;40.95;100083.00;5084343;28;20045;-78
2022/02/25 10:41:09;;;;;;;5.15;2.17;;;;;;;9.02;41.43;100098.56;5086019;28;20075;-78
2022/02/25 10:43:45;;;;;;;9.23;3.13;;;;;;;9.13;41.29;100094.25;5085079;28;20033;-76
2022/02/25 10:46:13;;;;;;;11.55;4.18;;;;;;;9.13;41.01;100098.69;5080976;28;20126;-78
2022/02/25 10:48:44;;;;;;;8.88;3.25;;;;;;;8.95;41.11;100095.53;5084352;28;20033;-78
2022/02/25 10:51:11;;;;;;;6.82;3.00;;;;;;;9.23;40.84;100096.25;5085653;28;20101;-79
2022/02/25 10:53:43;;;;;;;9.48;3.55;;;;;;;9.57;39.87;100095.56;5084888;28;20083;-77
2022/02/25 10:56:14;;;;;;;5.32;2.60;;;;;;;9.61;39.36;100098.81;5085218;28;20282;-81
2022/02/25 10:58:42;;;;;;;4.97;2.33;;;;;;;9.81;39.36;100097.41;5082709;28;20039;-79
2022/02/25 11:01:14;;;;;;;9.25;3.00;;;;;;;9.87;38.93;100093.50;5083820;28;20044;-79
2022/02/25 11:03:42;;;;;;;5.10;1.77;;;;;;;9.99;39.00;100089.94;5085916;28;20060;-80
2022/02/25 11:06:10;;;;;;;5.85;2.45;;;;;;;10.45;38.66;100096.34;5084257;28;20096;-79
2022/02/25 11:08:39;;;;;;;7.82;3.50;;;;;;;10.46;38.41;100093.59;5082934;28;20052;-80
2022/02/25 11:11:07;;;;;;;6.30;2.85;;;;;;;10.47;38.52;100100.53;5081342;28;20084;-80
2022/02/25 11:13:37;;;;;;;6.93;2.65;;;;;;;10.83;38.08;100097.88;5076492;28;20098;-80
2022/02/25 11:16:07;;;;;;;4.97;2.92;;;;;;;11.07;37.43;100087.22;5068598;28;20113;-80
2022/02/25 11:18:34;;;;;;;8.00;4.40;;;;;;;10.89;37.03;100081.56;5067640;28;20079;-78
2022/02/25 11:21:02;;;;;;;13.82;3.40;;;;;;;10.60;37.29;100089.06;5065946;28;20044;-80
2022/02/25 11:23:30;;;;;;;5.53;2.97;;;;;;;10.90;37.47;100077.97;5070306;28;20067;-83
2022/02/25 11:25:58;;;;;;;3.83;2.42;;;;;;;11.24;36.96;100088.56;5066990;28;20072;-78
2022/02/25 11:28:25;;;;;;;6.43;2.33;;;;;;;11.33;35.81;100090.50;5064727;28;20056;-79
2022/02/25 11:31:00;;;;;;;8.90;2.28;;;;;;;11.31;35.72;100087.13;5065548;28;20091;-81
2022/02/25 11:33:29;;;;;;;4.97;2.33;;;;;;;11.37;35.99;100083.16;5065741;28;20055;-80
2022/02/25 11:35:58;;;;;;;4.40;1.80;;;;;;;11.16;36.27;100090.97;5064249;28;20128;-79
2022/02/25 11:38:31;;;;;;;4.55;2.63;;;;;;;10.82;37.04;100096.19;5064912;28;20119;-80
2022/02/25 11:41:02;;;;;;;3.17;1.92;;;;;;;10.56;37.08;100091.09;5065398;28;20575;-78
2022/02/25 11:43:35;;;;;;;8.57;3.13;;;;;;;10.22;35.70;100084.81;5063750;28;20072;-78
2022/02/25 11:46:06;;;;;;;8.52;2.90;;;;;;;10.16;36.08;100087.91;5063972;28;20076;-79